createdAt,value
2018-09-27T00:01:28.386Z,81.25
2018-09-27T00:03:56.943Z,81.48
2018-09-27T00:06:25.463Z,81.41
2018-09-27T00:08:54.028Z,81.51
2018-09-27T00:11:22.543Z,81.87
2018-09-27T00:13:51.077Z,81.83
2018-09-27T00:16:19.602Z,81.73
2018-09-27T00:18:48.153Z,81.56
2018-09-27T00:21:16.673Z,81.62
2018-09-27T00:23:45.202Z,81.66
2018-09-27T00:26:13.952Z,81.67
2018-09-27T00:28:42.625Z,81.68
2018-09-27T00:31:11.167Z,82.09
2018-09-27T00:33:39.719Z,82.36
2018-09-27T00:36:08.302Z,82.43
2018-09-27T00:38:36.823Z,82.45
2018-09-27T00:41:05.425Z,82.52
2018-09-27T00:43:33.952Z,82.65
2018-09-27T00:46:02.491Z,82.93
2018-09-27T00:48:31.006Z,83.33
2018-09-27T00:50:59.585Z,83.53
2018-09-27T00:53:28.100Z,83.46
2018-09-27T00:55:56.657Z,83.92
2018-09-27T00:58:25.168Z,83.96
2018-09-27T01:00:53.707Z,84.23
2018-09-27T01:03:22.217Z,84.35
2018-09-27T01:05:50.755Z,84.52
2018-09-27T01:08:19.275Z,84.86
2018-09-27T01:10:47.821Z,84.86
2018-09-27T01:13:16.327Z,84.90
2018-09-27T01:15:44.892Z,85.25
2018-09-27T01:18:13.412Z,85.40
2018-09-27T01:20:41.960Z,85.33
2018-09-27T01:23:10.472Z,85.49
2018-09-27T01:25:39.005Z,85.56
2018-09-27T01:28:07.527Z,85.30
2018-09-27T01:30:36.194Z,85.46
2018-09-27T01:33:04.757Z,85.29
2018-09-27T01:35:33.309Z,85.43
2018-09-27T01:38:01.837Z,85.37
2018-09-27T01:40:30.365Z,85.80
2018-09-27T01:42:58.883Z,85.72
2018-09-27T01:45:27.412Z,85.55
2018-09-27T01:47:55.936Z,85.54
2018-09-27T01:50:24.474Z,85.50
2018-09-27T01:52:53.468Z,85.34
2018-09-27T01:55:22.069Z,85.47
2018-09-27T01:57:50.588Z,85.65
2018-09-27T02:00:19.159Z,85.65
2018-09-27T02:02:47.683Z,85.43
2018-09-27T02:05:16.225Z,85.34
2018-09-27T02:07:44.749Z,85.48
2018-09-27T02:10:13.301Z,85.41
2018-09-27T02:12:41.825Z,84.99
2018-09-27T02:15:10.359Z,84.87
2018-09-27T02:17:39.123Z,84.70
2018-09-27T02:20:07.686Z,84.61
2018-09-27T02:22:36.183Z,84.53
2018-09-27T02:25:04.780Z,84.51
2018-09-27T02:27:33.314Z,84.38
2018-09-27T02:30:01.827Z,84.43
2018-09-27T02:32:30.390Z,84.30
2018-09-27T02:34:58.906Z,84.23
2018-09-27T02:37:27.421Z,83.99
2018-09-27T02:39:55.945Z,84.16
2018-09-27T02:42:24.464Z,83.92
2018-09-27T02:44:52.968Z,83.91
2018-09-27T02:47:21.621Z,83.53
2018-09-27T02:49:50.129Z,83.66
2018-09-27T02:52:18.666Z,83.86
2018-09-27T02:54:47.188Z,83.89
2018-09-27T02:57:15.711Z,83.90
2018-09-27T02:59:44.202Z,83.75
2018-09-27T03:02:12.725Z,83.91
2018-09-27T03:04:41.225Z,83.80
2018-09-27T03:07:09.746Z,84.03
2018-09-27T03:09:38.243Z,83.99
2018-09-27T03:12:06.869Z,83.79
2018-09-27T03:14:35.407Z,83.72
2018-09-27T03:17:03.963Z,84.03
2018-09-27T03:19:32.458Z,84.19
2018-09-27T03:22:00.985Z,84.07
2018-09-27T03:24:29.517Z,83.67
2018-09-27T03:26:58.035Z,83.75
2018-09-27T03:29:26.628Z,83.94
2018-09-27T03:31:55.194Z,84.15
2018-09-27T03:34:23.717Z,84.33
2018-09-27T03:36:52.237Z,84.09
2018-09-27T03:39:20.748Z,84.40
2018-09-27T03:41:49.269Z,84.08
2018-09-27T03:44:17.763Z,84.27
2018-09-27T03:46:46.289Z,84.40
2018-09-27T03:49:14.789Z,84.53
2018-09-27T03:51:43.306Z,84.57
2018-09-27T03:54:11.833Z,84.49
2018-09-27T03:56:40.340Z,84.77
2018-09-27T03:59:08.864Z,84.89
2018-09-27T04:01:37.387Z,84.95
2018-09-27T04:04:05.896Z,85.11
2018-09-27T04:06:34.413Z,84.68
2018-09-27T04:09:02.959Z,84.89
2018-09-27T04:11:31.492Z,85.04
2018-09-27T04:13:59.999Z,85.24
2018-09-27T04:16:28.618Z,85.05
2018-09-27T04:18:57.115Z,85.11
2018-09-27T04:21:25.640Z,85.46
2018-09-27T04:23:54.161Z,85.45
2018-09-27T04:26:22.667Z,85.74
2018-09-27T04:28:51.186Z,85.39
2018-09-27T04:31:19.686Z,85.70
2018-09-27T04:33:48.268Z,85.58
2018-09-27T04:36:16.757Z,85.64
2018-09-27T04:38:45.275Z,86.11
2018-09-27T04:41:13.772Z,85.87
2018-09-27T04:43:42.330Z,85.82
2018-09-27T04:46:10.826Z,85.82
2018-09-27T04:48:39.352Z,85.95
2018-09-27T04:51:07.866Z,86.21
2018-09-27T04:53:36.939Z,86.15
2018-09-27T04:56:05.446Z,86.18
2018-09-27T04:58:33.958Z,86.37
2018-09-27T05:01:02.485Z,86.39
2018-09-27T05:03:31.013Z,86.42
2018-09-27T05:05:59.514Z,86.42
2018-09-27T05:08:28.069Z,86.72
2018-09-27T05:10:56.607Z,86.70
2018-09-27T05:13:25.165Z,86.51
2018-09-27T05:15:53.705Z,86.56
2018-09-27T05:18:22.232Z,86.73
2018-09-27T05:20:50.742Z,86.76
2018-09-27T05:23:19.275Z,86.71
2018-09-27T05:25:47.786Z,86.98
2018-09-27T05:28:16.317Z,86.94
2018-09-27T05:30:44.818Z,87.00
2018-09-27T05:33:13.430Z,87.24
2018-09-27T05:35:41.925Z,87.39
2018-09-27T05:38:10.446Z,87.70
2018-09-27T05:40:38.956Z,88.37
2018-09-27T05:43:08.091Z,88.36
2018-09-27T05:45:36.688Z,88.10
2018-09-27T05:48:05.373Z,87.75
2018-09-27T05:50:33.893Z,87.85
2018-09-27T05:53:02.465Z,87.89
2018-09-27T05:55:30.954Z,87.69
2018-09-27T05:57:59.468Z,87.40
2018-09-27T06:00:27.979Z,87.64
2018-09-27T06:02:56.514Z,87.45
2018-09-27T06:05:25.032Z,87.54
2018-09-27T06:07:53.553Z,87.59
2018-09-27T06:10:22.101Z,87.62
2018-09-27T06:12:50.640Z,87.45
2018-09-27T06:15:19.146Z,86.88
2018-09-27T06:17:47.673Z,87.46
2018-09-27T06:20:16.176Z,87.19
2018-09-27T06:22:44.709Z,87.55
2018-09-27T06:25:13.213Z,87.68
2018-09-27T06:27:41.748Z,86.95
2018-09-27T06:30:10.338Z,86.78
2018-09-27T06:32:39.084Z,86.39
2018-09-27T06:35:07.706Z,86.51
2018-09-27T06:37:36.515Z,86.52
2018-09-27T06:40:05.269Z,86.50
2018-09-27T06:42:33.770Z,86.32
2018-09-27T06:45:02.307Z,86.37
2018-09-27T06:47:30.821Z,86.01
2018-09-27T06:49:59.353Z,85.76
2018-09-27T06:52:27.858Z,85.86
2018-09-27T06:54:56.399Z,85.98
2018-09-27T06:57:24.918Z,85.79
2018-09-27T06:59:53.442Z,85.12
2018-09-27T07:02:21.946Z,84.37
2018-09-27T07:04:50.550Z,82.84
2018-09-27T07:07:19.124Z,82.25
2018-09-27T07:09:47.657Z,82.70
2018-09-27T07:12:16.321Z,82.71
2018-09-27T07:14:44.743Z,82.67
2018-09-27T07:17:13.259Z,83.25
2018-09-27T07:19:41.806Z,82.82
2018-09-27T07:22:10.326Z,83.17
2018-09-27T07:24:38.858Z,83.28
2018-09-27T07:27:07.371Z,83.42
2018-09-27T07:29:35.957Z,83.29
2018-09-27T07:32:04.497Z,83.37
2018-09-27T07:34:33.029Z,83.45
2018-09-27T07:37:01.576Z,83.33
2018-09-27T07:39:30.113Z,83.59
2018-09-27T07:41:58.622Z,83.58
2018-09-27T07:44:27.212Z,83.60
2018-09-27T07:46:55.695Z,83.17
2018-09-27T07:49:24.221Z,83.30
2018-09-27T07:51:52.741Z,83.16
2018-09-27T07:54:21.360Z,82.50
2018-09-27T07:56:49.826Z,82.62
2018-09-27T07:59:18.360Z,82.70
2018-09-27T08:01:46.877Z,82.42
2018-09-27T08:04:15.480Z,82.80
2018-09-27T08:06:43.942Z,83.09
2018-09-27T08:09:12.473Z,82.29
2018-09-27T08:11:41.058Z,82.15
2018-09-27T08:14:09.813Z,82.14
2018-09-27T08:16:38.357Z,82.95
2018-09-27T08:19:06.894Z,82.86
2018-09-27T08:21:35.411Z,82.53
2018-09-27T08:24:03.997Z,82.41
2018-09-27T08:26:32.572Z,81.91
2018-09-27T08:29:01.068Z,79.76
2018-09-27T08:31:29.592Z,78.49
2018-09-27T08:33:58.129Z,79.21
2018-09-27T08:36:26.681Z,78.68
2018-09-27T08:38:55.189Z,78.95
2018-09-27T08:41:23.781Z,79.10
2018-09-27T08:43:52.314Z,79.82
2018-09-27T08:46:20.870Z,80.54
2018-09-27T08:48:49.399Z,81.29
2018-09-27T08:51:18.041Z,80.85
2018-09-27T08:53:46.562Z,80.00
2018-09-27T08:56:15.221Z,78.59
2018-09-27T08:58:43.735Z,79.60
2018-09-27T09:01:12.281Z,77.60
2018-09-27T09:03:40.884Z,77.58
2018-09-27T09:06:09.368Z,76.69
2018-09-27T09:08:38.030Z,75.74
2018-09-27T09:11:06.884Z,75.58
2018-09-27T09:13:35.475Z,76.92
2018-09-27T09:16:04.544Z,76.09
2018-09-27T09:18:33.071Z,77.04
2018-09-27T09:21:01.717Z,77.39
2018-09-27T09:23:30.231Z,77.26
2018-09-27T09:25:58.779Z,76.78
2018-09-27T09:28:27.359Z,76.32
2018-09-27T09:30:55.873Z,75.57
2018-09-27T09:33:24.804Z,75.13
2018-09-27T09:35:53.393Z,74.92
2018-09-27T09:38:21.926Z,75.43
2018-09-27T09:40:50.518Z,77.33
2018-09-27T09:43:19.038Z,77.51
2018-09-27T09:45:47.629Z,76.99
2018-09-27T09:48:16.146Z,77.45
2018-09-27T09:50:44.673Z,77.31
2018-09-27T09:53:13.194Z,77.25
2018-09-27T09:55:41.749Z,77.97
2018-09-27T09:58:10.325Z,77.11
2018-09-27T10:00:38.977Z,76.51
2018-09-27T10:03:08.690Z,75.30
2018-09-27T10:05:37.290Z,74.69
2018-09-27T10:08:06.119Z,74.47
2018-09-27T10:10:34.666Z,73.44
2018-09-27T10:13:03.190Z,73.77
2018-09-27T10:15:31.772Z,74.68
2018-09-27T10:18:00.694Z,74.33
2018-09-27T10:20:29.354Z,74.39
2018-09-27T10:22:57.910Z,75.95
2018-09-27T10:25:26.467Z,76.25
2018-09-27T10:27:54.986Z,75.94
2018-09-27T10:30:23.522Z,74.20
2018-09-27T10:32:52.074Z,72.51
2018-09-27T10:35:20.586Z,71.55
2018-09-27T10:37:49.591Z,69.43
2018-09-27T10:40:18.103Z,69.37
2018-09-27T10:42:46.642Z,69.78
2018-09-27T10:45:15.160Z,71.08
2018-09-27T10:47:43.722Z,70.26
2018-09-27T10:50:12.209Z,70.76
2018-09-27T10:52:40.734Z,70.22
2018-09-27T10:55:09.233Z,69.66
2018-09-27T10:57:37.775Z,69.12
2018-09-27T11:00:06.433Z,70.36
2018-09-27T11:02:34.962Z,70.85
2018-09-27T11:05:03.477Z,71.43
2018-09-27T11:07:32.036Z,70.63
2018-09-27T11:10:00.526Z,69.53
2018-09-27T11:12:29.062Z,69.96
2018-09-27T11:14:57.558Z,68.49
2018-09-27T11:17:26.087Z,67.33
2018-09-27T11:19:54.598Z,66.27
2018-09-27T11:22:23.126Z,65.80
2018-09-27T11:24:51.606Z,65.70
2018-09-27T11:27:20.134Z,66.59
2018-09-27T11:29:54.058Z,66.26
2018-09-27T11:32:27.774Z,67.06
2018-09-27T11:34:56.267Z,67.65
2018-09-27T11:37:24.776Z,67.80
2018-09-27T11:39:53.286Z,67.11
2018-09-27T11:42:22.100Z,67.43
2018-09-27T11:44:50.587Z,66.68
2018-09-27T11:47:19.239Z,64.59
2018-09-27T11:49:47.835Z,63.58
2018-09-27T11:52:16.394Z,63.16
2018-09-27T11:54:44.902Z,62.93
2018-09-27T11:57:13.436Z,62.27
2018-09-27T11:59:41.933Z,62.99
2018-09-27T12:02:10.470Z,64.22
2018-09-27T12:04:38.975Z,64.05
2018-09-27T12:07:07.513Z,64.98
2018-09-27T12:09:36.042Z,65.92
2018-09-27T12:12:04.713Z,65.65
2018-09-27T12:14:33.200Z,66.42
2018-09-27T12:17:01.744Z,66.46
2018-09-27T12:19:30.714Z,66.11
2018-09-27T12:21:59.312Z,65.59
2018-09-27T12:24:27.824Z,66.44
2018-09-27T12:26:56.373Z,66.62
2018-09-27T12:29:24.872Z,66.48
2018-09-27T12:31:53.441Z,66.43
2018-09-27T12:34:21.994Z,66.04
2018-09-27T12:36:50.504Z,65.48
2018-09-27T12:39:19.027Z,63.94
2018-09-27T12:41:47.570Z,65.06
2018-09-27T12:44:16.109Z,66.21
2018-09-27T12:46:44.638Z,66.69
2018-09-27T12:49:13.184Z,65.88
2018-09-27T12:51:41.779Z,64.70
2018-09-27T12:54:10.369Z,64.29
2018-09-27T12:56:38.861Z,64.56
2018-09-27T12:59:07.733Z,64.45
2018-09-27T13:01:36.269Z,65.76
2018-09-27T13:04:04.856Z,66.02
2018-09-27T13:06:33.330Z,66.72
2018-09-27T13:09:02.014Z,67.04
2018-09-27T13:11:30.423Z,67.45
2018-09-27T13:13:58.948Z,66.87
2018-09-27T13:16:27.446Z,66.67
2018-09-27T13:18:57.942Z,66.19
2018-09-27T13:21:24.795Z,65.97
2018-09-27T13:23:53.339Z,65.67
2018-09-27T13:26:21.845Z,66.60
2018-09-27T13:28:50.381Z,66.51
2018-09-27T13:31:25.673Z,65.39
2018-09-27T13:33:54.296Z,65.49
2018-09-27T13:36:22.786Z,65.08
2018-09-27T13:38:51.304Z,64.59
2018-09-27T13:41:19.929Z,64.90
2018-09-27T13:43:49.310Z,64.50
2018-09-27T13:46:18.231Z,64.84
2018-09-27T13:48:47.028Z,64.96
2018-09-27T13:51:16.769Z,65.21
2018-09-27T13:53:46.956Z,65.46
2018-09-27T13:56:15.460Z,65.17
2018-09-27T13:58:43.973Z,64.68
2018-09-27T14:01:12.476Z,64.70
2018-09-27T14:03:40.988Z,64.50
2018-09-27T14:06:09.524Z,64.07
2018-09-27T14:08:38.039Z,64.11
2018-09-27T14:11:06.555Z,64.10
2018-09-27T14:13:35.098Z,63.98
2018-09-27T14:16:03.619Z,63.57
2018-09-27T14:18:32.140Z,63.71
2018-09-27T14:21:00.652Z,64.44
2018-09-27T14:23:29.198Z,64.04
2018-09-27T14:25:57.705Z,64.61
2018-09-27T14:28:26.229Z,64.88
2018-09-27T14:30:54.783Z,64.93
2018-09-27T14:33:23.316Z,64.74
2018-09-27T14:35:51.826Z,65.12
2018-09-27T14:38:20.377Z,65.09
2018-09-27T14:40:48.888Z,65.18
2018-09-27T14:43:17.375Z,65.21
2018-09-27T14:45:45.895Z,64.54
2018-09-27T14:48:14.385Z,64.72
2018-09-27T14:50:42.900Z,64.58
2018-09-27T14:53:11.389Z,63.17
2018-09-27T14:55:39.919Z,62.85
2018-09-27T14:58:08.444Z,62.42
2018-09-27T15:00:37.007Z,63.03
2018-09-27T15:03:05.906Z,64.16
2018-09-27T15:05:34.433Z,63.93
2018-09-27T15:08:02.940Z,63.22
2018-09-27T15:10:31.504Z,63.57
2018-09-27T15:12:59.990Z,64.41
2018-09-27T15:15:28.518Z,65.40
2018-09-27T15:17:57.089Z,66.00
2018-09-27T15:20:25.555Z,65.60
2018-09-27T15:22:54.095Z,64.58
2018-09-27T15:25:22.627Z,64.29
2018-09-27T15:27:51.118Z,64.38
2018-09-27T15:30:19.650Z,63.80
2018-09-27T15:32:48.174Z,63.62
2018-09-27T15:35:16.988Z,63.67
2018-09-27T15:37:45.504Z,64.26
2018-09-27T15:40:14.043Z,64.33
2018-09-27T15:42:42.544Z,64.30
2018-09-27T15:45:11.073Z,64.19
2018-09-27T15:47:39.566Z,64.79
2018-09-27T15:50:08.117Z,64.47
2018-09-27T15:52:36.632Z,64.34
2018-09-27T15:55:05.177Z,64.84
2018-09-27T15:57:33.697Z,64.82
2018-09-27T16:00:02.224Z,64.97
2018-09-27T16:02:30.724Z,65.35
2018-09-27T16:04:59.250Z,65.66
2018-09-27T16:07:27.737Z,66.06
2018-09-27T16:09:56.273Z,66.08
2018-09-27T16:12:24.838Z,66.35
2018-09-27T16:14:53.505Z,66.66
2018-09-27T16:17:22.115Z,66.97
2018-09-27T16:19:50.763Z,66.93
2018-09-27T16:22:19.295Z,67.09
2018-09-27T16:24:47.859Z,67.59
2018-09-27T16:27:16.353Z,67.40
2018-09-27T16:29:44.985Z,67.37
2018-09-27T16:32:13.575Z,67.53
2018-09-27T16:34:42.970Z,67.70
2018-09-27T16:37:11.482Z,67.70
2018-09-27T16:39:39.960Z,68.02
2018-09-27T16:42:08.632Z,67.81
2018-09-27T16:44:37.275Z,67.98
2018-09-27T16:47:05.838Z,68.02
2018-09-27T16:49:34.358Z,68.19
2018-09-27T16:52:02.887Z,68.42
2018-09-27T16:54:31.430Z,68.58
2018-09-27T16:57:00.016Z,68.74
2018-09-27T16:59:28.682Z,69.09
2018-09-27T17:01:57.297Z,69.23
2018-09-27T17:04:25.759Z,69.49
2018-09-27T17:06:54.277Z,69.61
2018-09-27T17:09:22.778Z,69.65
2018-09-27T17:11:51.313Z,69.88
2018-09-27T17:14:19.826Z,69.82
2018-09-27T17:16:48.364Z,69.82
2018-09-27T17:19:16.869Z,69.92
2018-09-27T17:21:45.394Z,70.16
2018-09-27T17:24:13.970Z,70.32
2018-09-27T17:26:42.512Z,70.43
2018-09-27T17:29:11.040Z,70.62
2018-09-27T17:31:39.590Z,70.56
2018-09-27T17:34:08.353Z,70.78
2018-09-27T17:36:36.878Z,71.02
2018-09-27T17:39:06.721Z,71.27
2018-09-27T17:41:35.270Z,71.65
2018-09-27T17:44:03.833Z,71.73
2018-09-27T17:46:32.453Z,72.27
2018-09-27T17:49:00.937Z,72.00
2018-09-27T17:51:29.475Z,72.51
2018-09-27T17:53:57.978Z,72.54
2018-09-27T17:56:26.522Z,72.96
2018-09-27T17:58:55.031Z,72.96
2018-09-27T18:01:23.572Z,73.37
2018-09-27T18:03:52.081Z,73.52
2018-09-27T18:06:20.610Z,73.92
2018-09-27T18:08:49.142Z,74.17
2018-09-27T18:11:17.666Z,74.88
2018-09-27T18:13:46.216Z,75.21
2018-09-27T18:16:14.745Z,75.50
2018-09-27T18:18:43.274Z,75.76
2018-09-27T18:21:11.903Z,76.27
2018-09-27T18:23:40.619Z,76.77
2018-09-27T18:26:09.357Z,77.12
2018-09-27T18:28:37.952Z,77.29
2018-09-27T18:31:06.576Z,77.70
2018-09-27T18:33:35.121Z,77.81
2018-09-27T18:36:03.648Z,78.04
2018-09-27T18:38:32.148Z,78.10
2018-09-27T18:41:00.712Z,78.25
2018-09-27T18:43:29.238Z,78.16
2018-09-27T18:45:57.742Z,78.31
2018-09-27T18:48:26.279Z,78.29
2018-09-27T18:50:54.789Z,78.33
2018-09-27T18:53:23.317Z,78.69
2018-09-27T18:55:51.822Z,79.11
2018-09-27T18:58:20.361Z,79.55
2018-09-27T19:00:48.870Z,80.10
2018-09-27T19:03:17.409Z,80.42
2018-09-27T19:05:45.922Z,80.97
2018-09-27T19:08:14.444Z,81.14
2018-09-27T19:10:42.947Z,81.35
2018-09-27T19:13:11.475Z,81.47
2018-09-27T19:15:39.983Z,81.76
2018-09-27T19:18:08.615Z,81.86
2018-09-27T19:20:37.186Z,82.16
2018-09-27T19:23:05.726Z,82.42
2018-09-27T19:25:34.308Z,82.45
2018-09-27T19:28:02.857Z,82.83
2018-09-27T19:30:31.363Z,83.05
2018-09-27T19:32:59.929Z,83.35
2018-09-27T19:35:28.480Z,83.95
2018-09-27T19:37:57.222Z,84.30
2018-09-27T19:40:25.830Z,84.58
2018-09-27T19:42:54.417Z,85.03
2018-09-27T19:45:22.944Z,85.59
2018-09-27T19:47:51.546Z,85.76
2018-09-27T19:50:20.053Z,86.20
2018-09-27T19:52:48.613Z,86.55
2018-09-27T19:55:17.254Z,87.18
2018-09-27T19:57:45.991Z,87.35
2018-09-27T20:00:14.542Z,87.71
2018-09-27T20:02:43.223Z,87.84
2018-09-27T20:05:11.668Z,87.93
2018-09-27T20:07:40.191Z,87.25
2018-09-27T20:10:08.728Z,87.00
2018-09-27T20:12:37.270Z,87.06
2018-09-27T20:15:05.843Z,87.42
2018-09-27T20:17:34.373Z,88.14
2018-09-27T20:20:02.891Z,88.77
2018-09-27T20:22:31.426Z,89.39
2018-09-27T20:25:00.046Z,89.97
2018-09-27T20:27:28.566Z,89.67
2018-09-27T20:29:57.066Z,90.00
2018-09-27T20:32:25.616Z,89.39
2018-09-27T20:34:54.168Z,89.53
2018-09-27T20:37:22.691Z,90.15
2018-09-27T20:39:51.203Z,90.37
2018-09-27T20:42:19.724Z,90.46
2018-09-27T20:44:48.215Z,91.59
2018-09-27T20:47:16.734Z,92.08
2018-09-27T20:49:45.284Z,92.51
2018-09-27T20:52:13.803Z,92.97
2018-09-27T20:54:42.403Z,93.36
2018-09-27T20:57:10.906Z,93.51
2018-09-27T20:59:39.430Z,93.45
2018-09-27T21:02:08.014Z,92.87
2018-09-27T21:04:36.539Z,92.56
2018-09-27T21:07:05.046Z,92.51
2018-09-27T21:09:33.586Z,93.35
2018-09-27T21:12:02.085Z,93.86
2018-09-27T21:14:30.629Z,93.54
2018-09-27T21:16:59.129Z,93.55
2018-09-27T21:19:27.717Z,93.48
2018-09-27T21:21:56.206Z,93.30
2018-09-27T21:24:24.721Z,93.34
2018-09-27T21:26:54.666Z,93.12
2018-09-27T21:29:24.146Z,92.84
2018-09-27T21:31:52.745Z,92.97
2018-09-27T21:34:21.345Z,92.83
2018-09-27T21:36:49.830Z,92.48
2018-09-27T21:39:18.353Z,92.49
2018-09-27T21:41:46.846Z,92.68
2018-09-27T21:44:15.371Z,92.53
2018-09-27T21:46:43.861Z,92.15
2018-09-27T21:49:12.390Z,91.69
2018-09-27T21:51:40.905Z,91.35
2018-09-27T21:54:09.420Z,90.57
2018-09-27T21:56:37.948Z,89.93
2018-09-27T21:59:06.492Z,88.94
2018-09-27T22:01:34.980Z,88.39
2018-09-27T22:04:03.505Z,87.87
2018-09-27T22:06:32.010Z,87.81
2018-09-27T22:09:00.529Z,86.74
2018-09-27T22:11:29.029Z,86.12
2018-09-27T22:13:57.553Z,85.73
2018-09-27T22:16:26.049Z,85.33
2018-09-27T22:18:54.558Z,85.02
2018-09-27T22:21:23.061Z,84.51
2018-09-27T22:23:51.584Z,84.05
2018-09-27T22:26:20.093Z,83.93
2018-09-27T22:28:48.610Z,83.86
2018-09-27T22:31:17.126Z,83.39
2018-09-27T22:33:45.672Z,82.80
2018-09-27T22:36:14.181Z,82.56
2018-09-27T22:38:42.702Z,81.74
2018-09-27T22:41:11.209Z,81.11
2018-09-27T22:43:39.727Z,80.93
2018-09-27T22:46:08.227Z,80.62
2018-09-27T22:48:36.722Z,80.07
2018-09-27T22:51:05.255Z,79.68
2018-09-27T22:53:33.790Z,79.59
2018-09-27T22:56:02.318Z,79.38
2018-09-27T22:58:30.814Z,79.28
2018-09-27T23:00:59.329Z,79.27
2018-09-27T23:03:27.835Z,78.89
2018-09-27T23:05:56.357Z,78.51
2018-09-27T23:08:24.902Z,78.05
2018-09-27T23:10:53.429Z,77.56
2018-09-27T23:13:21.949Z,77.43
2018-09-27T23:15:50.499Z,77.14
2018-09-27T23:18:19.002Z,77.33
2018-09-27T23:20:47.537Z,77.85
2018-09-27T23:23:16.034Z,77.76
2018-09-27T23:25:44.584Z,77.60
2018-09-27T23:28:13.182Z,77.10
2018-09-27T23:30:41.701Z,77.43
2018-09-27T23:33:10.225Z,77.24
2018-09-27T23:35:38.745Z,77.83
2018-09-27T23:38:07.257Z,77.88
2018-09-27T23:40:35.776Z,78.35
2018-09-27T23:43:04.322Z,78.82
2018-09-27T23:45:32.849Z,78.73
2018-09-27T23:48:01.349Z,78.74
2018-09-27T23:50:29.882Z,78.67
2018-09-27T23:52:58.402Z,79.18
2018-09-27T23:55:26.927Z,79.04
2018-09-27T23:57:55.497Z,79.12
